sensor_id;sensor_type;location;lat;lon;timestamp;pressure;altitude;pressure_sealevel;temperature;humidity
54850;BME280;47660;51.334;12.396;2023-04-29T00:00:14;99616.88;;;22.28;67.38
54850;BME280;47660;51.334;12.396;2023-04-29T00:02:40;99618.41;;;21.63;71.36
54850;BME280;47660;51.334;12.396;2023-04-29T00:05:05;99617.75;;;21.91;69.61
54850;BME280;47660;51.334;12.396;2023-04-29T00:07:31;99616.91;;;21.76;70.11
54850;BME280;47660;51.334;12.396;2023-04-29T00:09:57;99625.19;;;21.59;71.39
54850;BME280;47660;51.334;12.396;2023-04-29T00:12:22;99628.09;;;20.51;83.62
54850;BME280;47660;51.334;12.396;2023-04-29T00:14:48;99621.28;;;19.69;93.07
54850;BME280;47660;51.334;12.396;2023-04-29T00:17:13;99615.09;;;20.23;91.34
54850;BME280;47660;51.334;12.396;2023-04-29T00:19:40;99611.84;;;19.65;97.39
54850;BME280;47660;51.334;12.396;2023-04-29T00:22:08;99603.38;;;20.62;95.74
54850;BME280;47660;51.334;12.396;2023-04-29T00:24:37;99615.19;;;20.38;97.04
54850;BME280;47660;51.334;12.396;2023-04-29T00:27:03;99616.81;;;19.93;98.42
54850;BME280;47660;51.334;12.396;2023-04-29T00:29:30;99612.84;;;20.35;96.35
54850;BME280;47660;51.334;12.396;2023-04-29T00:31:55;99609.50;;;20.80;92.74
54850;BME280;47660;51.334;12.396;2023-04-29T00:34:23;99587.66;;;21.34;91.69
54850;BME280;47660;51.334;12.396;2023-04-29T00:36:52;99593.34;;;22.06;87.87
54850;BME280;47660;51.334;12.396;2023-04-29T00:39:17;99602.00;;;20.43;94.58
54850;BME280;47660;51.334;12.396;2023-04-29T00:41:42;99599.94;;;21.22;88.78
54850;BME280;47660;51.334;12.396;2023-04-29T00:44:10;99605.06;;;20.40;95.04
54850;BME280;47660;51.334;12.396;2023-04-29T00:46:38;99598.97;;;20.85;89.63
54850;BME280;47660;51.334;12.396;2023-04-29T00:49:07;99596.56;;;21.80;89.33
54850;BME280;47660;51.334;12.396;2023-04-29T00:51:33;99592.38;;;21.02;91.17
54850;BME280;47660;51.334;12.396;2023-04-29T00:54:00;99595.81;;;20.73;91.57
54850;BME280;47660;51.334;12.396;2023-04-29T00:56:28;99596.97;;;21.99;86.41
54850;BME280;47660;51.334;12.396;2023-04-29T00:58:58;99606.06;;;21.46;87.12
54850;BME280;47660;51.334;12.396;2023-04-29T01:01:27;99597.00;;;22.42;80.59
54850;BME280;47660;51.334;12.396;2023-04-29T01:03:53;99598.97;;;22.70;77.66
54850;BME280;47660;51.334;12.396;2023-04-29T01:09:39;99616.66;;;22.07;82.79
54850;BME280;47660;51.334;12.396;2023-04-29T01:17:40;99608.25;;;22.39;81.77
54850;BME280;47660;51.334;12.396;2023-04-29T01:20:09;99617.88;;;20.85;90.65
54850;BME280;47660;51.334;12.396;2023-04-29T01:22:34;99621.91;;;20.89;90.29
54850;BME280;47660;51.334;12.396;2023-04-29T01:25:01;99618.00;;;21.06;87.70
54850;BME280;47660;51.334;12.396;2023-04-29T01:27:45;99623.22;;;21.98;84.52
54850;BME280;47660;51.334;12.396;2023-04-29T01:30:16;99627.22;;;20.74;90.89
54850;BME280;47660;51.334;12.396;2023-04-29T01:35:44;99619.22;;;21.94;86.40
54850;BME280;47660;51.334;12.396;2023-04-29T01:41:20;99614.69;;;22.38;80.79
54850;BME280;47660;51.334;12.396;2023-04-29T01:43:50;99621.69;;;21.74;87.03
54850;BME280;47660;51.334;12.396;2023-04-29T01:46:17;99618.13;;;22.10;84.63
54850;BME280;47660;51.334;12.396;2023-04-29T01:48:45;99621.63;;;21.89;81.05
54850;BME280;47660;51.334;12.396;2023-04-29T01:51:11;99627.25;;;21.27;85.22
54850;BME280;47660;51.334;12.396;2023-04-29T01:53:37;99618.41;;;22.15;78.75
54850;BME280;47660;51.334;12.396;2023-04-29T01:56:06;99623.34;;;22.48;75.98
54850;BME280;47660;51.334;12.396;2023-04-29T01:58:33;99630.69;;;21.21;83.39
54850;BME280;47660;51.334;12.396;2023-04-29T02:01:04;99637.50;;;21.47;86.25
54850;BME280;47660;51.334;12.396;2023-04-29T02:03:31;99645.94;;;20.99;88.52
54850;BME280;47660;51.334;12.396;2023-04-29T02:05:56;99645.63;;;20.78;90.20
54850;BME280;47660;51.334;12.396;2023-04-29T02:08:22;99641.06;;;20.47;91.38
54850;BME280;47660;51.334;12.396;2023-04-29T02:10:55;99638.31;;;21.92;84.30
54850;BME280;47660;51.334;12.396;2023-04-29T02:13:21;99639.75;;;21.58;84.49
54850;BME280;47660;51.334;12.396;2023-04-29T02:15:46;99643.13;;;22.12;78.98
54850;BME280;47660;51.334;12.396;2023-04-29T02:18:12;99640.03;;;21.33;83.17
54850;BME280;47660;51.334;12.396;2023-04-29T02:20:37;99647.19;;;21.11;84.30
54850;BME280;47660;51.334;12.396;2023-04-29T02:23:02;99642.47;;;21.73;81.67
54850;BME280;47660;51.334;12.396;2023-04-29T02:25:28;99646.94;;;21.81;79.79
54850;BME280;47660;51.334;12.396;2023-04-29T02:27:53;99644.41;;;21.19;84.85
54850;BME280;47660;51.334;12.396;2023-04-29T02:30:19;99641.63;;;21.58;81.22
54850;BME280;47660;51.334;12.396;2023-04-29T02:32:47;99640.25;;;21.62;85.10
54850;BME280;47660;51.334;12.396;2023-04-29T02:35:12;99634.91;;;21.39;82.54
54850;BME280;47660;51.334;12.396;2023-04-29T02:37:37;99650.94;;;20.87;87.48
54850;BME280;47660;51.334;12.396;2023-04-29T02:40:03;99642.38;;;21.51;82.90
54850;BME280;47660;51.334;12.396;2023-04-29T02:42:30;99649.59;;;21.06;83.25
54850;BME280;47660;51.334;12.396;2023-04-29T02:44:55;99655.22;;;20.26;90.76
54850;BME280;47660;51.334;12.396;2023-04-29T02:47:21;99655.06;;;19.96;95.11
54850;BME280;47660;51.334;12.396;2023-04-29T02:49:46;99652.47;;;21.04;84.79
54850;BME280;47660;51.334;12.396;2023-04-29T02:52:12;99655.22;;;20.96;86.54
54850;BME280;47660;51.334;12.396;2023-04-29T02:54:37;99650.25;;;21.08;85.71
54850;BME280;47660;51.334;12.396;2023-04-29T02:57:03;99643.63;;;22.01;78.85
54850;BME280;47660;51.334;12.396;2023-04-29T02:59:28;99645.66;;;21.62;80.58
54850;BME280;47660;51.334;12.396;2023-04-29T03:01:54;99643.75;;;21.32;81.22
54850;BME280;47660;51.334;12.396;2023-04-29T03:04:19;99646.81;;;21.59;80.67
54850;BME280;47660;51.334;12.396;2023-04-29T03:06:45;99642.00;;;21.40;80.70
54850;BME280;47660;51.334;12.396;2023-04-29T03:09:10;99638.06;;;21.57;79.91
54850;BME280;47660;51.334;12.396;2023-04-29T03:11:39;99637.50;;;21.32;81.62
54850;BME280;47660;51.334;12.396;2023-04-29T03:14:05;99637.69;;;21.15;82.89
54850;BME280;47660;51.334;12.396;2023-04-29T03:16:33;99648.38;;;21.23;80.93
54850;BME280;47660;51.334;12.396;2023-04-29T03:19:01;99641.78;;;21.56;79.80
54850;BME280;47660;51.334;12.396;2023-04-29T03:21:29;99640.78;;;21.42;79.24
54850;BME280;47660;51.334;12.396;2023-04-29T03:23:57;99648.50;;;21.15;82.61
54850;BME280;47660;51.334;12.396;2023-04-29T03:26:23;99647.63;;;20.76;85.73
54850;BME280;47660;51.334;12.396;2023-04-29T03:28:49;99644.94;;;21.30;84.09
54850;BME280;47660;51.334;12.396;2023-04-29T03:31:17;99640.97;;;21.86;81.94
54850;BME280;47660;51.334;12.396;2023-04-29T03:33:45;99638.28;;;21.41;79.75
54850;BME280;47660;51.334;12.396;2023-04-29T03:36:10;99637.31;;;20.80;84.54
54850;BME280;47660;51.334;12.396;2023-04-29T03:38:35;99634.56;;;22.08;76.44
54850;BME280;47660;51.334;12.396;2023-04-29T03:41:01;99632.28;;;21.90;76.29
54850;BME280;47660;51.334;12.396;2023-04-29T03:43:26;99639.16;;;21.18;79.90
54850;BME280;47660;51.334;12.396;2023-04-29T03:45:52;99633.81;;;20.95;82.50
54850;BME280;47660;51.334;12.396;2023-04-29T03:48:22;99626.50;;;21.78;79.79
54850;BME280;47660;51.334;12.396;2023-04-29T03:50:48;99631.06;;;21.48;79.84
54850;BME280;47660;51.334;12.396;2023-04-29T03:53:13;99632.66;;;22.24;75.25
54850;BME280;47660;51.334;12.396;2023-04-29T03:55:39;99632.69;;;22.09;74.48
54850;BME280;47660;51.334;12.396;2023-04-29T03:58:05;99633.75;;;21.93;74.64
54850;BME280;47660;51.334;12.396;2023-04-29T04:00:31;99644.28;;;21.28;79.41
54850;BME280;47660;51.334;12.396;2023-04-29T04:02:57;99640.13;;;22.22;75.44
54850;BME280;47660;51.334;12.396;2023-04-29T04:05:23;99638.97;;;22.09;75.35
54850;BME280;47660;51.334;12.396;2023-04-29T04:07:53;99647.69;;;21.60;80.33
54850;BME280;47660;51.334;12.396;2023-04-29T04:10:18;99655.06;;;20.98;81.78
54850;BME280;47660;51.334;12.396;2023-04-29T04:12:44;99651.88;;;21.62;79.03
54850;BME280;47660;51.334;12.396;2023-04-29T04:15:11;99652.06;;;21.91;76.29
54850;BME280;47660;51.334;12.396;2023-04-29T04:17:36;99653.53;;;22.30;74.28
54850;BME280;47660;51.334;12.396;2023-04-29T04:20:05;99653.06;;;22.85;70.63
54850;BME280;47660;51.334;12.396;2023-04-29T04:22:30;99651.56;;;22.39;72.46
54850;BME280;47660;51.334;12.396;2023-04-29T04:24:56;99655.00;;;22.11;74.67
54850;BME280;47660;51.334;12.396;2023-04-29T04:27:21;99662.59;;;20.87;81.34
54850;BME280;47660;51.334;12.396;2023-04-29T04:29:53;99668.72;;;22.46;76.76
54850;BME280;47660;51.334;12.396;2023-04-29T04:32:22;99674.88;;;22.55;75.39
54850;BME280;47660;51.334;12.396;2023-04-29T04:34:50;99664.81;;;21.97;74.53
54850;BME280;47660;51.334;12.396;2023-04-29T04:37:19;99677.06;;;21.10;81.06
54850;BME280;47660;51.334;12.396;2023-04-29T04:39:45;99670.63;;;21.79;77.22
54850;BME280;47660;51.334;12.396;2023-04-29T04:42:11;99674.59;;;21.23;79.48
54850;BME280;47660;51.334;12.396;2023-04-29T04:44:36;99672.75;;;21.39;79.80
54850;BME280;47660;51.334;12.396;2023-04-29T04:47:02;99666.25;;;20.95;82.09
54850;BME280;47660;51.334;12.396;2023-04-29T04:49:27;99664.28;;;21.42;79.41
54850;BME280;47660;51.334;12.396;2023-04-29T04:51:55;99665.31;;;21.02;82.87
54850;BME280;47660;51.334;12.396;2023-04-29T04:54:23;99683.03;;;21.05;81.62
54850;BME280;47660;51.334;12.396;2023-04-29T04:56:48;99676.22;;;21.77;76.76
54850;BME280;47660;51.334;12.396;2023-04-29T04:59:16;99670.81;;;22.29;74.68
54850;BME280;47660;51.334;12.396;2023-04-29T05:01:41;99682.25;;;21.94;74.45
54850;BME280;47660;51.334;12.396;2023-04-29T05:04:07;99691.69;;;20.77;84.63
54850;BME280;47660;51.334;12.396;2023-04-29T05:06:34;99689.53;;;20.96;83.47
54850;BME280;47660;51.334;12.396;2023-04-29T05:09:00;99688.50;;;21.50;80.05
54850;BME280;47660;51.334;12.396;2023-04-29T05:11:25;99692.66;;;20.84;85.17
54850;BME280;47660;51.334;12.396;2023-04-29T05:13:50;99701.28;;;20.25;91.46
54850;BME280;47660;51.334;12.396;2023-04-29T05:16:16;99689.34;;;21.50;83.86
54850;BME280;47660;51.334;12.396;2023-04-29T05:18:42;99692.69;;;20.76;87.01
54850;BME280;47660;51.334;12.396;2023-04-29T05:21:10;99686.38;;;22.05;77.33
54850;BME280;47660;51.334;12.396;2023-04-29T05:23:40;99693.41;;;21.16;81.48
54850;BME280;47660;51.334;12.396;2023-04-29T05:26:06;99703.94;;;20.88;85.39
54850;BME280;47660;51.334;12.396;2023-04-29T05:28:31;99703.28;;;21.24;80.60
54850;BME280;47660;51.334;12.396;2023-04-29T05:30:59;99709.16;;;21.28;82.07
54850;BME280;47660;51.334;12.396;2023-04-29T05:33:25;99709.25;;;20.73;87.33
54850;BME280;47660;51.334;12.396;2023-04-29T05:38:16;99708.28;;;21.95;78.35
54850;BME280;47660;51.334;12.396;2023-04-29T05:40:41;99704.72;;;22.62;73.71
54850;BME280;47660;51.334;12.396;2023-04-29T05:43:09;99713.06;;;22.08;75.01
54850;BME280;47660;51.334;12.396;2023-04-29T05:45:35;99719.78;;;22.13;77.27
54850;BME280;47660;51.334;12.396;2023-04-29T05:48:01;99708.53;;;23.11;70.78
54850;BME280;47660;51.334;12.396;2023-04-29T05:50:26;99713.69;;;22.84;71.88
54850;BME280;47660;51.334;12.396;2023-04-29T05:52:54;99724.78;;;21.56;80.68
54850;BME280;47660;51.334;12.396;2023-04-29T05:55:20;99720.59;;;22.13;77.92
54850;BME280;47660;51.334;12.396;2023-04-29T05:57:48;99732.00;;;21.63;80.76
54850;BME280;47660;51.334;12.396;2023-04-29T06:00:13;99729.44;;;22.37;75.61
54850;BME280;47660;51.334;12.396;2023-04-29T06:02:39;99738.09;;;21.57;81.15
54850;BME280;47660;51.334;12.396;2023-04-29T06:05:07;99730.81;;;23.13;73.49
54850;BME280;47660;51.334;12.396;2023-04-29T06:07:33;99739.25;;;22.96;71.62
54850;BME280;47660;51.334;12.396;2023-04-29T06:09:58;99737.06;;;22.63;75.25
54850;BME280;47660;51.334;12.396;2023-04-29T06:12:29;99738.34;;;23.61;72.95
54850;BME280;47660;51.334;12.396;2023-04-29T06:14:55;99742.31;;;22.35;73.73
54850;BME280;47660;51.334;12.396;2023-04-29T06:17:20;99746.81;;;22.28;74.22
54850;BME280;47660;51.334;12.396;2023-04-29T06:19:46;99766.28;;;21.25;83.81
54850;BME280;47660;51.334;12.396;2023-04-29T06:22:13;99758.38;;;22.21;81.37
54850;BME280;47660;51.334;12.396;2023-04-29T06:24:39;99760.41;;;22.49;77.04
54850;BME280;47660;51.334;12.396;2023-04-29T06:27:07;99758.47;;;22.28;76.01
54850;BME280;47660;51.334;12.396;2023-04-29T06:29:32;99766.16;;;22.09;78.00
54850;BME280;47660;51.334;12.396;2023-04-29T06:32:00;99776.31;;;22.22;77.27
54850;BME280;47660;51.334;12.396;2023-04-29T06:34:26;99774.91;;;21.66;81.49
54850;BME280;47660;51.334;12.396;2023-04-29T06:36:52;99785.44;;;21.38;84.87
54850;BME280;47660;51.334;12.396;2023-04-29T06:39:17;99787.19;;;21.31;85.18
54850;BME280;47660;51.334;12.396;2023-04-29T06:41:42;99782.66;;;22.00;77.71
54850;BME280;47660;51.334;12.396;2023-04-29T06:44:08;99784.84;;;22.71;74.63
54850;BME280;47660;51.334;12.396;2023-04-29T06:46:33;99788.91;;;22.00;75.96
54850;BME280;47660;51.334;12.396;2023-04-29T06:48:59;99793.00;;;21.66;77.20
54850;BME280;47660;51.334;12.396;2023-04-29T06:51:25;99792.38;;;21.79;75.07
54850;BME280;47660;51.334;12.396;2023-04-29T06:53:54;99798.88;;;22.00;73.55
54850;BME280;47660;51.334;12.396;2023-04-29T06:56:22;99796.38;;;21.83;72.97
54850;BME280;47660;51.334;12.396;2023-04-29T06:58:48;99800.69;;;21.07;74.61
54850;BME280;47660;51.334;12.396;2023-04-29T07:01:13;99798.91;;;22.15;69.17
54850;BME280;47660;51.334;12.396;2023-04-29T07:03:39;99788.84;;;22.08;66.78
54850;BME280;47660;51.334;12.396;2023-04-29T07:06:04;99793.13;;;22.48;66.61
54850;BME280;47660;51.334;12.396;2023-04-29T07:08:30;99794.97;;;22.17;66.65
54850;BME280;47660;51.334;12.396;2023-04-29T07:10:56;99808.97;;;22.06;68.34
54850;BME280;47660;51.334;12.396;2023-04-29T07:13:22;99807.66;;;22.62;65.70
54850;BME280;47660;51.334;12.396;2023-04-29T07:15:48;99811.59;;;21.61;67.85
54850;BME280;47660;51.334;12.396;2023-04-29T07:18:13;99810.53;;;21.47;69.67
54850;BME280;47660;51.334;12.396;2023-04-29T07:20:38;99821.50;;;21.30;70.23
54850;BME280;47660;51.334;12.396;2023-04-29T07:23:04;99819.41;;;21.17;71.17
54850;BME280;47660;51.334;12.396;2023-04-29T07:25:34;99824.38;;;21.90;69.70
54850;BME280;47660;51.334;12.396;2023-04-29T07:28:00;99820.16;;;22.18;65.24
54850;BME280;47660;51.334;12.396;2023-04-29T07:30:25;99828.44;;;21.48;68.08
54850;BME280;47660;51.334;12.396;2023-04-29T07:32:50;99822.28;;;21.77;67.16
54850;BME280;47660;51.334;12.396;2023-04-29T07:35:16;99829.69;;;22.59;63.82
54850;BME280;47660;51.334;12.396;2023-04-29T07:37:41;99830.88;;;21.43;68.13
54850;BME280;47660;51.334;12.396;2023-04-29T07:40:08;99837.75;;;21.69;66.95
54850;BME280;47660;51.334;12.396;2023-04-29T07:42:33;99842.06;;;20.85;69.86
54850;BME280;47660;51.334;12.396;2023-04-29T07:44:59;99850.94;;;20.93;69.90
54850;BME280;47660;51.334;12.396;2023-04-29T07:47:24;99848.88;;;21.04;70.77
54850;BME280;47660;51.334;12.396;2023-04-29T07:49:54;99849.66;;;21.98;70.11
54850;BME280;47660;51.334;12.396;2023-04-29T07:52:20;99856.47;;;20.12;74.50
54850;BME280;47660;51.334;12.396;2023-04-29T07:54:45;99858.31;;;21.78;67.28
54850;BME280;47660;51.334;12.396;2023-04-29T07:57:13;99862.75;;;22.39;67.21
54850;BME280;47660;51.334;12.396;2023-04-29T07:59:38;99872.84;;;21.30;69.39
54850;BME280;47660;51.334;12.396;2023-04-29T08:02:04;99868.47;;;21.29;67.95
54850;BME280;47660;51.334;12.396;2023-04-29T08:04:32;99873.16;;;21.59;67.69
54850;BME280;47660;51.334;12.396;2023-04-29T08:06:57;99884.03;;;20.47;73.70
54850;BME280;47660;51.334;12.396;2023-04-29T08:09:22;99866.94;;;22.11;66.14
54850;BME280;47660;51.334;12.396;2023-04-29T08:11:48;99875.09;;;22.57;63.15
54850;BME280;47660;51.334;12.396;2023-04-29T08:14:13;99883.06;;;22.20;63.57
54850;BME280;47660;51.334;12.396;2023-04-29T08:16:39;99890.97;;;21.21;68.25
54850;BME280;47660;51.334;12.396;2023-04-29T08:19:04;99897.31;;;21.05;68.23
54850;BME280;47660;51.334;12.396;2023-04-29T08:21:29;99898.50;;;20.55;71.62
54850;BME280;47660;51.334;12.396;2023-04-29T08:23:56;99905.53;;;19.50;76.41
54850;BME280;47660;51.334;12.396;2023-04-29T08:26:26;99912.78;;;20.24;72.73
54850;BME280;47660;51.334;12.396;2023-04-29T08:28:52;99901.50;;;20.68;69.98
54850;BME280;47660;51.334;12.396;2023-04-29T08:31:18;99915.56;;;20.55;74.89
54850;BME280;47660;51.334;12.396;2023-04-29T08:33:44;99916.81;;;20.76;70.92
54850;BME280;47660;51.334;12.396;2023-04-29T08:36:11;99919.13;;;21.04;68.10
54850;BME280;47660;51.334;12.396;2023-04-29T08:38:39;99921.53;;;20.90;68.29
54850;BME280;47660;51.334;12.396;2023-04-29T08:41:08;99916.19;;;22.75;62.85
54850;BME280;47660;51.334;12.396;2023-04-29T08:43:36;99932.38;;;22.30;62.88
54850;BME280;47660;51.334;12.396;2023-04-29T08:46:02;99918.66;;;21.78;61.83
54850;BME280;47660;51.334;12.396;2023-04-29T08:48:29;99930.59;;;22.22;61.21
54850;BME280;47660;51.334;12.396;2023-04-29T08:50:54;99934.63;;;22.41;60.43
54850;BME280;47660;51.334;12.396;2023-04-29T08:53:22;99930.34;;;21.47;62.55
54850;BME280;47660;51.334;12.396;2023-04-29T08:55:47;99934.09;;;21.70;63.08
54850;BME280;47660;51.334;12.396;2023-04-29T08:58:16;99937.56;;;21.23;64.84
54850;BME280;47660;51.334;12.396;2023-04-29T09:00:43;99937.47;;;20.69;68.38
54850;BME280;47660;51.334;12.396;2023-04-29T09:03:30;99940.91;;;22.04;62.63
54850;BME280;47660;51.334;12.396;2023-04-29T09:06:01;99950.97;;;20.77;68.16
54850;BME280;47660;51.334;12.396;2023-04-29T09:08:27;99960.03;;;21.56;64.39
54850;BME280;47660;51.334;12.396;2023-04-29T09:10:54;99965.84;;;20.65;66.61
54850;BME280;47660;51.334;12.396;2023-04-29T09:13:25;99966.78;;;20.88;68.25
54850;BME280;47660;51.334;12.396;2023-04-29T09:15:51;99967.34;;;20.59;66.86
54850;BME280;47660;51.334;12.396;2023-04-29T09:21:24;99975.06;;;20.95;66.58
54850;BME280;47660;51.334;12.396;2023-04-29T09:23:54;99977.59;;;20.72;67.34
54850;BME280;47660;51.334;12.396;2023-04-29T09:26:20;99976.16;;;21.95;63.09
54850;BME280;47660;51.334;12.396;2023-04-29T09:28:51;99988.44;;;19.81;71.41
54850;BME280;47660;51.334;12.396;2023-04-29T09:31:31;99991.84;;;19.74;72.29
54850;BME280;47660;51.334;12.396;2023-04-29T09:33:57;99987.28;;;20.49;68.27
54850;BME280;47660;51.334;12.396;2023-04-29T09:36:51;99997.38;;;20.89;67.83
54850;BME280;47660;51.334;12.396;2023-04-29T09:39:22;100006.56;;;20.30;70.44
54850;BME280;47660;51.334;12.396;2023-04-29T09:44:26;100008.84;;;21.22;68.02
54850;BME280;47660;51.334;12.396;2023-04-29T09:47:02;100013.59;;;20.47;69.01
54850;BME280;47660;51.334;12.396;2023-04-29T09:49:31;100021.22;;;20.11;70.21
54850;BME280;47660;51.334;12.396;2023-04-29T09:52:03;100020.31;;;22.58;60.35
54850;BME280;47660;51.334;12.396;2023-04-29T09:54:31;100028.88;;;22.23;60.06
54850;BME280;47660;51.334;12.396;2023-04-29T09:56:58;100024.28;;;21.54;61.32
54850;BME280;47660;51.334;12.396;2023-04-29T09:59:24;100039.22;;;20.93;63.50
54850;BME280;47660;51.334;12.396;2023-04-29T10:01:51;100047.03;;;19.97;67.94
54850;BME280;47660;51.334;12.396;2023-04-29T10:04:20;100046.47;;;20.84;63.67
54850;BME280;47660;51.334;12.396;2023-04-29T10:06:52;100051.72;;;20.94;65.11
54850;BME280;47660;51.334;12.396;2023-04-29T10:09:19;100048.38;;;21.23;63.37
54850;BME280;47660;51.334;12.396;2023-04-29T10:11:49;100050.06;;;21.25;62.93
54850;BME280;47660;51.334;12.396;2023-04-29T10:14:20;100051.94;;;21.24;63.44
54850;BME280;47660;51.334;12.396;2023-04-29T10:16:58;100062.69;;;19.93;70.85
54850;BME280;47660;51.334;12.396;2023-04-29T10:19:26;100073.50;;;20.01;70.35
54850;BME280;47660;51.334;12.396;2023-04-29T10:22:06;100054.94;;;20.31;70.14
54850;BME280;47660;51.334;12.396;2023-04-29T10:24:36;100061.31;;;20.72;68.14
54850;BME280;47660;51.334;12.396;2023-04-29T10:27:02;100073.78;;;19.90;70.60
54850;BME280;47660;51.334;12.396;2023-04-29T10:29:33;100067.25;;;20.51;67.23
54850;BME280;47660;51.334;12.396;2023-04-29T10:31:59;100075.53;;;20.49;65.41
54850;BME280;47660;51.334;12.396;2023-04-29T10:34:26;100077.53;;;20.88;64.20
54850;BME280;47660;51.334;12.396;2023-04-29T10:36:52;100086.31;;;20.32;64.22
54850;BME280;47660;51.334;12.396;2023-04-29T10:39:29;100080.75;;;20.51;66.79
54850;BME280;47660;51.334;12.396;2023-04-29T10:41:56;100080.41;;;20.54;65.92
54850;BME280;47660;51.334;12.396;2023-04-29T10:44:22;100081.09;;;20.14;65.85
54850;BME280;47660;51.334;12.396;2023-04-29T10:46:50;100086.50;;;20.72;64.84
54850;BME280;47660;51.334;12.396;2023-04-29T10:49:36;100081.25;;;20.87;63.10
54850;BME280;47660;51.334;12.396;2023-04-29T10:52:02;100104.38;;;19.64;70.17
54850;BME280;47660;51.334;12.396;2023-04-29T10:54:28;100095.00;;;19.85;68.63
54850;BME280;47660;51.334;12.396;2023-04-29T10:56:53;100104.19;;;19.23;70.21
54850;BME280;47660;51.334;12.396;2023-04-29T10:59:20;100103.34;;;18.51;73.92
54850;BME280;47660;51.334;12.396;2023-04-29T11:01:51;100102.19;;;18.54;77.78
54850;BME280;47660;51.334;12.396;2023-04-29T11:04:20;100095.53;;;19.11;75.74
54850;BME280;47660;51.334;12.396;2023-04-29T11:06:56;100104.03;;;20.18;69.85
54850;BME280;47660;51.334;12.396;2023-04-29T11:14:23;100110.97;;;21.04;65.43
54850;BME280;47660;51.334;12.396;2023-04-29T11:16:57;100117.88;;;20.57;66.72
54850;BME280;47660;51.334;12.396;2023-04-29T11:19:25;100106.91;;;20.50;65.48
54850;BME280;47660;51.334;12.396;2023-04-29T11:22:05;100119.72;;;22.02;60.84
54850;BME280;47660;51.334;12.396;2023-04-29T11:24:35;100115.28;;;21.78;60.88
54850;BME280;47660;51.334;12.396;2023-04-29T11:27:02;100122.84;;;21.83;60.69
54850;BME280;47660;51.334;12.396;2023-04-29T11:29:33;100125.81;;;21.56;61.41
54850;BME280;47660;51.334;12.396;2023-04-29T11:32:01;100128.81;;;20.14;64.95
54850;BME280;47660;51.334;12.396;2023-04-29T11:34:26;100142.84;;;20.34;62.79
54850;BME280;47660;51.334;12.396;2023-04-29T11:36:54;100149.78;;;19.85;65.07
54850;BME280;47660;51.334;12.396;2023-04-29T11:39:25;100141.47;;;21.29;61.29
54850;BME280;47660;51.334;12.396;2023-04-29T11:41:51;100151.88;;;19.92;64.62
54850;BME280;47660;51.334;12.396;2023-04-29T11:44:20;100140.34;;;21.72;60.30
54850;BME280;47660;51.334;12.396;2023-04-29T11:46:48;100157.47;;;20.23;63.22
54850;BME280;47660;51.334;12.396;2023-04-29T11:49:14;100150.78;;;19.84;65.80
54850;BME280;47660;51.334;12.396;2023-04-29T11:51:39;100153.63;;;20.26;62.66
54850;BME280;47660;51.334;12.396;2023-04-29T11:54:05;100168.84;;;18.96;68.46
54850;BME280;47660;51.334;12.396;2023-04-29T11:56:36;100177.56;;;19.43;68.64
54850;BME280;47660;51.334;12.396;2023-04-29T11:59:02;100185.84;;;18.79;69.40
54850;BME280;47660;51.334;12.396;2023-04-29T12:01:31;100186.66;;;19.15;67.67
54850;BME280;47660;51.334;12.396;2023-04-29T12:03:57;100178.50;;;20.71;62.58
54850;BME280;47660;51.334;12.396;2023-04-29T12:06:32;100180.28;;;20.29;65.19
54850;BME280;47660;51.334;12.396;2023-04-29T12:09:01;100192.38;;;19.73;64.06
54850;BME280;47660;51.334;12.396;2023-04-29T12:11:31;100184.03;;;21.35;59.45
54850;BME280;47660;51.334;12.396;2023-04-29T12:14:00;100189.50;;;20.77;60.85
54850;BME280;47660;51.334;12.396;2023-04-29T12:16:33;100181.06;;;21.70;58.72
54850;BME280;47660;51.334;12.396;2023-04-29T12:19:00;100183.38;;;21.33;58.49
54850;BME280;47660;51.334;12.396;2023-04-29T12:21:25;100180.16;;;20.72;58.68
54850;BME280;47660;51.334;12.396;2023-04-29T12:26:22;100184.94;;;21.84;58.12
54850;BME280;47660;51.334;12.396;2023-04-29T12:28:53;100172.72;;;22.51;55.75
54850;BME280;47660;51.334;12.396;2023-04-29T12:31:19;100176.03;;;21.67;56.77
54850;BME280;47660;51.334;12.396;2023-04-29T12:33:48;100177.81;;;21.83;56.59
54850;BME280;47660;51.334;12.396;2023-04-29T12:36:17;100180.78;;;21.65;57.33
54850;BME280;47660;51.334;12.396;2023-04-29T12:38:47;100187.47;;;22.72;54.28
54850;BME280;47660;51.334;12.396;2023-04-29T12:41:13;100189.19;;;22.10;55.50
54850;BME280;47660;51.334;12.396;2023-04-29T12:43:42;100192.41;;;21.65;55.96
54850;BME280;47660;51.334;12.396;2023-04-29T12:46:10;100190.44;;;23.24;52.49
54850;BME280;47660;51.334;12.396;2023-04-29T12:48:40;100194.94;;;23.77;51.42
54850;BME280;47660;51.334;12.396;2023-04-29T12:51:10;100200.94;;;23.42;51.53
54850;BME280;47660;51.334;12.396;2023-04-29T12:53:36;100193.78;;;22.64;52.28
54850;BME280;47660;51.334;12.396;2023-04-29T12:56:02;100198.25;;;21.13;55.45
54850;BME280;47660;51.334;12.396;2023-04-29T12:58:28;100197.34;;;22.02;54.72
54850;BME280;47660;51.334;12.396;2023-04-29T13:00:58;100193.28;;;21.66;54.31
54850;BME280;47660;51.334;12.396;2023-04-29T13:03:26;100191.81;;;22.81;51.50
54850;BME280;47660;51.334;12.396;2023-04-29T13:05:52;100194.56;;;22.18;52.24
54850;BME280;47660;51.334;12.396;2023-04-29T13:08:19;100192.31;;;22.22;51.40
54850;BME280;47660;51.334;12.396;2023-04-29T13:10:45;100193.34;;;22.52;50.22
54850;BME280;47660;51.334;12.396;2023-04-29T13:13:10;100196.50;;;22.33;50.71
54850;BME280;47660;51.334;12.396;2023-04-29T13:15:39;100193.25;;;22.06;52.23
54850;BME280;47660;51.334;12.396;2023-04-29T13:18:05;100191.50;;;21.17;55.11